Portada
METAR-TAF:

METAR-TAF

Aeroports :

Ambon, Indonèsia

latitud: 03-42S, longitud: 128-05E, altitud: 12 m

Observació

L'informe es va fer fa 11 hores i 4 minuts, a les 11:00 UTC
Vent 7 kt del Nord/Nord-Oest
Temperatura 27°C
Humitat 89%
Pressió 1007 hPa
Visibilitat 10 km o més
Escasses núvols a una alçada de 1800 ft

METAR: WAPP 111100Z 33007KT 9999 FEW018 27/25 Q1007 NOSIG

Hora: 07:04 (22:04 UTC)

Pronòstic

L'informe es va fer fa 5 hores i 4 minuts, a les 17:00 UTC
Pronòstic vàlid del 11 a les 18 UTC al 12 a les 18 UTC
Vent 6 kt del Nord/Nord-Oest
Visibilitat 10 km o més
Escasses núvols a una alçada de 1800 ft
Evolucionant progressivament
l' 12 a les 00 UTC al 12 a les 02 UTC
Vent 10 kt del Sud/Sud-Oest

TAF: WAPP 111700Z 1118/1218 34006KT 9999 FEW018 BECMG 1200/1202 20010KT

Observacions i pronòstics meteorològics de més de 4000 aeroports (METAR i TAF).

Les estacions disponibles són els punts grocs i vermells al mapa.

Posi el ratolí al punt desitjat per veure el nom de l'estació.

Feu clic per veure les observacions i els pronòstics meteorològics.

Per canviar el mapa: feu clic els botons verds amb una creu de color negre per apropar; al botó verd amb un guió per allunyar la imatge; o en les fletxes verdes per a mapes adjacents.


METAR-TAF: